createdAt,value
2023-12-20T00:02:13.498Z,783.22
2023-12-20T00:08:00.803Z,784.50
2023-12-20T00:13:52.128Z,785.13
2023-12-20T00:19:39.473Z,559.57
2023-12-20T00:25:29.516Z,792.88
2023-12-20T00:31:19.238Z,790.90
2023-12-20T00:37:06.043Z,15.73
2023-12-20T00:42:59.315Z,14.27
2023-12-20T00:48:47.141Z,15.18
2023-12-20T00:54:43.168Z,22.85
2023-12-20T01:07:46.285Z,472.60
2023-12-20T01:13:33.487Z,707.70
2023-12-20T01:19:20.493Z,745.53
2023-12-20T01:25:08.931Z,777.78
2023-12-20T01:30:55.915Z,778.72
2023-12-20T01:36:44.093Z,774.97
2023-12-20T01:42:33.940Z,782.75
2023-12-20T01:48:25.963Z,805.25
2023-12-20T01:54:18.065Z,813.63
2023-12-20T02:00:05.641Z,814.22
2023-12-20T02:05:56.620Z,812.15
2023-12-20T02:11:44.572Z,805.80
2023-12-20T02:17:44.812Z,800.75
2023-12-20T02:23:31.976Z,805.13
2023-12-20T02:29:18.766Z,803.13
2023-12-20T02:35:08.747Z,780.20
2023-12-20T02:46:55.630Z,787.42
2023-12-20T02:52:47.904Z,773.03
2023-12-20T03:04:25.368Z,776.47
2023-12-20T03:10:19.947Z,771.42
2023-12-20T03:16:14.765Z,785.47
2023-12-20T03:22:02.321Z,757.45
2023-12-20T03:27:54.012Z,790.67
2023-12-20T03:33:40.944Z,797.37
2023-12-20T03:39:27.877Z,796.35
2023-12-20T03:45:14.860Z,793.67
2023-12-20T03:51:01.709Z,802.13
2023-12-20T03:56:48.682Z,806.95
2023-12-20T04:03:18.970Z,821.35
2023-12-20T04:09:05.976Z,826.55
2023-12-20T04:15:00.169Z,838.65
2023-12-20T04:20:50.689Z,833.40
2023-12-20T04:26:37.707Z,837.78
2023-12-20T04:32:30.485Z,834.95
2023-12-20T04:38:24.793Z,841.08
2023-12-20T04:44:32.062Z,835.67
2023-12-20T04:50:19.310Z,842.50
2023-12-20T04:56:06.813Z,841.65
2023-12-20T05:01:55.594Z,840.53
2023-12-20T05:07:42.873Z,845.53
2023-12-20T05:13:38.138Z,842.25
2023-12-20T05:19:32.389Z,851.77
2023-12-20T05:25:20.181Z,862.70
2023-12-20T05:31:08.231Z,884.55
2023-12-20T05:36:59.506Z,858.78
2023-12-20T05:42:47.946Z,867.05
2023-12-20T05:48:35.012Z,862.15
2023-12-20T05:54:23.257Z,877.13
2023-12-20T06:00:13.183Z,876.83
2023-12-20T06:06:10.855Z,868.85
2023-12-20T06:12:02.916Z,853.88
2023-12-20T06:17:50.217Z,844.47
2023-12-20T06:23:37.344Z,847.10
2023-12-20T06:29:36.108Z,850.10
2023-12-20T06:35:24.251Z,854.45
2023-12-20T06:41:15.119Z,854.05
2023-12-20T06:47:03.418Z,842.67
2023-12-20T06:52:50.556Z,837.15
2023-12-20T06:58:39.044Z,832.25
2023-12-20T07:04:30.183Z,847.22
2023-12-20T07:10:28.508Z,840.97
2023-12-20T07:16:15.411Z,836.22
2023-12-20T07:22:05.144Z,837.03
2023-12-20T07:27:52.521Z,839.53
2023-12-20T07:34:02.951Z,830.85
2023-12-20T07:39:50.310Z,841.72
2023-12-20T07:45:37.303Z,861.10
2023-12-20T07:51:24.090Z,878.58
2023-12-20T07:57:13.473Z,869.50
2023-12-20T08:03:00.822Z,869.50
2023-12-20T08:08:55.381Z,874.35
2023-12-20T08:14:48.580Z,873.17
2023-12-20T08:20:40.581Z,868.05
2023-12-20T08:26:28.360Z,870.72
2023-12-20T08:32:15.812Z,874.00
2023-12-20T08:38:02.661Z,882.33
2023-12-20T08:43:49.509Z,843.35
2023-12-20T08:49:36.774Z,869.50
2023-12-20T08:55:24.157Z,872.03
2023-12-20T09:01:34.959Z,896.28
2023-12-20T09:07:34.476Z,882.65
2023-12-20T09:13:21.990Z,881.10
2023-12-20T09:19:11.454Z,865.42
2023-12-20T09:24:58.417Z,844.10
2023-12-20T09:30:47.588Z,871.80
2023-12-20T09:36:38.499Z,860.80
2023-12-20T09:42:43.590Z,863.75
2023-12-20T09:48:32.509Z,880.10
2023-12-20T09:55:00.469Z,894.13
2023-12-20T10:00:58.935Z,924.25
2023-12-20T10:07:10.335Z,933.67
2023-12-20T10:13:12.226Z,927.42
2023-12-20T10:19:02.587Z,649.97
2023-12-20T10:24:49.551Z,914.15
2023-12-20T10:30:37.206Z,923.25
2023-12-20T10:36:27.921Z,922.20
2023-12-20T10:42:17.133Z,925.30
2023-12-20T10:48:05.307Z,923.50
2023-12-20T10:53:54.232Z,925.50
2023-12-20T10:59:42.505Z,931.47
2023-12-20T11:05:43.270Z,931.30
2023-12-20T11:11:57.930Z,928.20
2023-12-20T11:17:56.384Z,929.83
2023-12-20T11:23:43.922Z,928.53
2023-12-20T11:29:38.603Z,931.13
2023-12-20T11:35:28.551Z,938.22
2023-12-20T11:41:17.068Z,936.08
2023-12-20T11:47:06.591Z,928.75
2023-12-20T11:52:54.885Z,931.88
2023-12-20T11:58:42.574Z,933.22
2023-12-20T12:04:29.613Z,935.40
2023-12-20T12:10:16.589Z,928.88
2023-12-20T12:16:03.787Z,925.70
2023-12-20T12:21:51.775Z,921.70
2023-12-20T12:27:40.646Z,926.97
2023-12-20T12:33:28.032Z,930.90
2023-12-20T12:39:19.133Z,929.65
2023-12-20T12:45:06.706Z,933.33
2023-12-20T12:51:00.467Z,939.67
2023-12-20T12:56:49.261Z,935.15
2023-12-20T13:02:43.074Z,932.10
2023-12-20T13:08:31.223Z,930.25
2023-12-20T13:14:21.953Z,939.40
2023-12-20T13:20:10.129Z,940.28
2023-12-20T13:25:57.117Z,959.83
2023-12-20T13:31:54.601Z,937.60
2023-12-20T13:37:41.644Z,932.38
2023-12-20T13:43:28.695Z,928.47
2023-12-20T13:49:15.920Z,924.75
2023-12-20T13:55:09.592Z,923.85
2023-12-20T14:00:56.798Z,925.30
2023-12-20T14:06:43.847Z,921.35
2023-12-20T14:12:30.928Z,926.08
2023-12-20T14:18:18.369Z,923.67
2023-12-20T14:24:05.752Z,923.35
2023-12-20T14:29:56.132Z,920.08
2023-12-20T14:35:45.761Z,920.47
2023-12-20T14:41:38.215Z,924.58
2023-12-20T14:47:26.267Z,921.30
2023-12-20T14:53:23.750Z,916.17
2023-12-20T14:59:13.268Z,914.83
2023-12-20T15:05:02.338Z,907.38
2023-12-20T15:10:49.281Z,908.33
2023-12-20T15:16:36.959Z,905.65
2023-12-20T15:22:25.023Z,905.92
2023-12-20T15:28:12.361Z,902.47
2023-12-20T15:34:03.914Z,898.38
2023-12-20T15:40:06.438Z,643.37
2023-12-20T15:45:53.747Z,895.72
2023-12-20T15:51:40.890Z,896.58
2023-12-20T15:57:29.425Z,896.97
2023-12-20T16:03:24.858Z,902.85
2023-12-20T16:15:32.191Z,617.13
2023-12-20T16:21:19.481Z,895.83
2023-12-20T16:27:06.526Z,896.78
2023-12-20T16:32:53.620Z,896.88
2023-12-20T16:38:40.602Z,889.38
2023-12-20T16:44:39.871Z,891.28
2023-12-20T16:50:38.557Z,925.65
2023-12-20T16:56:29.723Z,929.42
2023-12-20T17:02:21.015Z,929.53
2023-12-20T17:08:08.760Z,930.13
2023-12-20T17:13:55.786Z,930.20
2023-12-20T17:19:48.158Z,928.85
2023-12-20T17:25:43.005Z,929.45
2023-12-20T17:31:30.088Z,925.67
2023-12-20T17:37:19.817Z,925.97
2023-12-20T17:43:07.034Z,927.70
2023-12-20T17:48:54.342Z,926.75
2023-12-20T17:54:46.582Z,921.92
2023-12-20T18:00:38.535Z,924.88
2023-12-20T18:06:25.835Z,925.27
2023-12-20T18:12:12.852Z,921.95
2023-12-20T18:17:59.836Z,919.20
2023-12-20T18:23:49.254Z,920.65
2023-12-20T18:29:37.242Z,923.70
2023-12-20T18:35:24.306Z,921.38
2023-12-20T18:41:15.781Z,922.38
2023-12-20T18:47:06.811Z,922.05
2023-12-20T18:52:54.293Z,921.78
2023-12-20T18:58:41.301Z,923.15
2023-12-20T19:04:28.245Z,924.00
2023-12-20T19:10:15.345Z,927.67
2023-12-20T19:16:02.783Z,920.50
2023-12-20T19:21:49.841Z,921.15
2023-12-20T19:27:37.196Z,907.97
2023-12-20T19:33:24.232Z,918.28
2023-12-20T19:39:11.311Z,920.47
2023-12-20T19:44:58.366Z,925.50
2023-12-20T19:50:45.451Z,922.15
2023-12-20T19:56:32.440Z,919.85
2023-12-20T20:02:23.529Z,920.25
2023-12-20T20:08:12.804Z,916.88
2023-12-20T20:14:00.998Z,927.42
2023-12-20T20:19:48.213Z,911.78
2023-12-20T20:25:35.293Z,913.88
2023-12-20T20:31:22.229Z,910.10
2023-12-20T20:37:09.171Z,911.92
2023-12-20T20:42:56.369Z,914.03
2023-12-20T20:48:50.416Z,913.92
2023-12-20T20:54:38.992Z,911.88
2023-12-20T21:00:25.967Z,910.42
2023-12-20T21:06:13.382Z,917.03
2023-12-20T21:12:01.409Z,912.00
2023-12-20T21:17:49.369Z,910.75
2023-12-20T21:23:37.686Z,914.70
2023-12-20T21:29:25.005Z,913.03
2023-12-20T21:35:13.722Z,918.70
2023-12-20T21:41:03.465Z,915.95
2023-12-20T21:46:50.344Z,915.50
2023-12-20T21:52:37.201Z,905.42
2023-12-20T21:58:24.415Z,908.05
2023-12-20T22:04:11.599Z,902.40
2023-12-20T22:10:04.294Z,910.92
2023-12-20T22:15:52.598Z,909.03
2023-12-20T22:21:42.114Z,903.22
2023-12-20T22:27:48.433Z,901.97
2023-12-20T22:42:04.151Z,903.20
2023-12-20T22:47:57.610Z,899.10
2023-12-20T23:00:56.686Z,912.53
2023-12-20T23:07:01.927Z,912.25
2023-12-20T23:13:04.070Z,907.40
2023-12-20T23:18:53.476Z,900.15
2023-12-20T23:24:40.570Z,898.80
2023-12-20T23:30:28.305Z,906.10
2023-12-20T23:36:15.084Z,898.75
2023-12-20T23:42:01.889Z,904.03
2023-12-20T23:47:49.301Z,907.17
2023-12-20T23:53:42.409Z,909.55
2023-12-20T23:59:32.411Z,906.33
